Cofield, North Carolina
Current Conditions -  °F | °C
As of 11:15 AM on Tuesday 21 Oct 2014 (Local Time) from KASJ Reporting Station
Clear Clear  
Wind Chill: 67°   Ceiling: Unl
Heat Index: 67°   Visibility: 10mi
Dew Point: 54°   Wind: 0mph
Humidity: 63%   Direction: NA
Pressure: 29.91"   Gusts: NA
Location:  36.36°N, 76.91°W
Report Text: KASJ 211515Z AUTO 00000KT 10SM CLR 19/12 A2991 RMK AO2 T01930120
Loading
Personal Weather Stations






























Interactive Weather Map
Tropical Storm Tracking
New forecast layout! Learn more

10-Day Weather Forecast

Advertisements
Track Severe Weather on mobile